Welcome to Northern Hawkes Bay. New Zealand.
PWS Header
      nz Flag



Hit Counter


W3C Valid W3C Valid logo


    Wairoa

Select any of the Stations below to visit their websites.










Historic Data from Weather Underground
Select the location of interest below. Wairoa is the default. Please have patience, this Data is slow to load in.
Northern Hawkes Bay Historical Data
Daily Summary for February 6, 2017 Units:  Metric    English   Both
« Previous Day
Next Day »
Daily Weekly Monthly Yearly Custom
  High: Low: Average:
Temperature: 35.0 °C 14.8 °C 23.4 °C
Dew Point: 18.1 °C 9.1 °C 14.6 °C
Humidity: 91% 23% 63%
Wind Speed: 19.5km/h 0.0km/h 6.5km/h
Wind Gust: 29.4km/h - -
Wind- - West
Pressure: 1017.8 hPa 1010.4 hPa -
Precipitation: 0.0 mm    
Historical Graphs
 
 
Tabular Data for February 6, 2017
Time Temperature Dew Point Pressure Wind Wind Speed Wind Gust Humidity Rainfall Rate (Hourly) solar
00:02 17.2 °C 14.8 °C 1017.8 hPa Calm     86% 0.0 mm 0 W/m2
00:07 17.1 °C 14.9 °C 1017.5 hPa Calm     87% 0.0 mm 0 W/m2
00:12 17.0 °C 14.8 °C 1017.5 hPa North 1.1 km/h 2.6 km/h 87% 0.0 mm 0 W/m2
00:17 17.0 °C 15.0 °C 1017.5 hPa Calm   2.6 km/h 88% 0.0 mm 0 W/m2
00:22 16.8 °C 15.0 °C 1017.5 hPa North 2.6 km/h 3.5 km/h 89% 0.0 mm 0 W/m2
00:27 16.9 °C 15.3 °C 1017.5 hPa North 2.6 km/h 3.5 km/h 90% 0.0 mm 0 W/m2
00:32 16.8 °C 15.2 °C 1017.5 hPa North 3.5 km/h 6.1 km/h 90% 0.0 mm 0 W/m2
00:37 16.8 °C 14.8 °C 1017.5 hPa NNW 3.5 km/h 6.1 km/h 88% 0.0 mm 0 W/m2
00:42 16.7 °C 14.6 °C 1017.5 hPa North 2.6 km/h 6.1 km/h 87% 0.0 mm 0 W/m2
00:47 16.9 °C 14.6 °C 1017.5 hPa North 5.0 km/h 6.1 km/h 86% 0.0 mm 0 W/m2
00:52 16.9 °C 14.6 °C 1017.5 hPa NNW 2.6 km/h 6.1 km/h 86% 0.0 mm 0 W/m2
00:57 16.8 °C 14.4 °C 1017.2 hPa NNW 3.5 km/h 6.1 km/h 86% 0.0 mm 0 W/m2
01:02 16.8 °C 14.4 °C 1017.5 hPa NNW 2.6 km/h 6.1 km/h 86% 0.0 mm 0 W/m2
01:07 16.8 °C 14.3 °C 1017.5 hPa NNW 5.0 km/h 6.1 km/h 85% 0.0 mm 0 W/m2
01:12 16.8 °C 14.1 °C 1017.5 hPa NNW 5.0 km/h 7.2 km/h 84% 0.0 mm 0 W/m2
01:17 16.8 °C 14.1 °C 1017.2 hPa NNW 2.6 km/h 7.2 km/h 84% 0.0 mm 0 W/m2
01:22 16.4 °C 13.5 °C 1017.2 hPa NNW 2.6 km/h 7.2 km/h 83% 0.0 mm 0 W/m2
01:27 16.6 °C 13.9 °C 1017.5 hPa NW 2.6 km/h 6.1 km/h 84% 0.0 mm 0 W/m2
01:32 16.6 °C 14.1 °C 1017.5 hPa NNW 2.6 km/h 6.1 km/h 85% 0.0 mm 0 W/m2
01:37 16.5 °C 14.0 °C 1017.2 hPa North 5.0 km/h 6.1 km/h 85% 0.0 mm 0 W/m2
01:42 16.6 °C 14.1 °C 1017.2 hPa NNW 5.0 km/h 9.7 km/h 85% 0.0 mm 0 W/m2
01:47 16.8 °C 14.1 °C 1016.8 hPa NNW 6.1 km/h 13.4 km/h 84% 0.0 mm 0 W/m2
01:52 17.0 °C 13.9 °C 1017.2 hPa NNW 9.7 km/h 13.4 km/h 82% 0.0 mm 0 W/m2
01:57 17.0 °C 13.7 °C 1016.8 hPa NW 7.2 km/h 12.2 km/h 81% 0.0 mm 0 W/m2
02:02 16.9 °C 13.8 °C 1016.8 hPa NW 5.0 km/h 12.2 km/h 82% 0.0 mm 0 W/m2
02:07 16.8 °C 13.7 °C 1017.2 hPa NNW 5.0 km/h 12.2 km/h 82% 0.0 mm 0 W/m2
02:12 16.7 °C 13.8 °C 1016.8 hPa NNW 7.2 km/h 9.7 km/h 83% 0.0 mm 0 W/m2
02:17 16.5 °C 13.6 °C 1016.8 hPa NNW 5.0 km/h 9.7 km/h 83% 0.0 mm 0 W/m2
02:22 16.8 °C 14.1 °C 1016.5 hPa NNW 3.5 km/h 8.7 km/h 84% 0.0 mm 0 W/m2
02:27 16.4 °C 13.7 °C 1016.8 hPa NNW 3.5 km/h 8.7 km/h 84% 0.0 mm 0 W/m2
02:32 16.4 °C 13.7 °C 1016.8 hPa NW 5.0 km/h 8.7 km/h 84% 0.0 mm 0 W/m2
02:37 16.4 °C 13.7 °C 1016.8 hPa NNW 6.1 km/h 8.7 km/h 84% 0.0 mm 0 W/m2
02:42 16.3 °C 13.6 °C 1016.5 hPa NNW 5.0 km/h 8.7 km/h 84% 0.0 mm 0 W/m2
02:47 16.3 °C 13.6 °C 1016.8 hPa NNW 6.1 km/h 9.7 km/h 84% 0.0 mm 0 W/m2
02:52 16.4 °C 13.7 °C 1016.8 hPa NNW 6.1 km/h 9.7 km/h 84% 0.0 mm 0 W/m2
02:57 16.4 °C 13.7 °C 1016.8 hPa NNW 3.5 km/h 8.7 km/h 84% 0.0 mm 0 W/m2
03:02 16.8 °C 14.3 °C 1016.8 hPa NNW 6.1 km/h 8.7 km/h 85% 0.0 mm 0 W/m2
03:07 16.3 °C 13.8 °C 1016.8 hPa NNW 5.0 km/h 9.7 km/h 85% 0.0 mm 0 W/m2
03:12 16.1 °C 13.8 °C 1016.8 hPa NNW 5.0 km/h 9.7 km/h 86% 0.0 mm 0 W/m2
03:17 16.1 °C 13.8 °C 1016.5 hPa NNW 3.5 km/h 8.7 km/h 86% 0.0 mm 0 W/m2
03:22 16.2 °C 13.7 °C 1016.8 hPa NNW 7.2 km/h 11.1 km/h 85% 0.0 mm 0 W/m2
03:27 16.4 °C 13.9 °C 1016.5 hPa NNW 8.7 km/h 13.4 km/h 85% 0.0 mm 0 W/m2
03:32 16.5 °C 13.8 °C 1016.8 hPa NW 5.0 km/h 13.4 km/h 84% 0.0 mm 0 W/m2
03:37 16.4 °C 13.7 °C 1016.5 hPa NW 6.1 km/h 12.2 km/h 84% 0.0 mm 0 W/m2
03:42 16.4 °C 13.7 °C 1016.5 hPa NW 5.0 km/h 8.7 km/h 84% 0.0 mm 0 W/m2
03:47 16.0 °C 13.3 °C 1016.5 hPa NW 3.5 km/h 8.7 km/h 84% 0.0 mm 0 W/m2
03:52 15.9 °C 13.6 °C 1016.8 hPa NW 7.2 km/h 11.1 km/h 86% 0.0 mm 0 W/m2
03:57 16.0 °C 13.5 °C 1016.5 hPa NW 5.0 km/h 11.1 km/h 85% 0.0 mm 0 W/m2
04:02 16.3 °C 13.6 °C 1016.5 hPa NNW 3.5 km/h 11.1 km/h 84% 0.0 mm 0 W/m2
04:07 15.9 °C 13.4 °C 1016.5 hPa NNW 6.1 km/h 8.7 km/h 85% 0.0 mm 0 W/m2
04:12 16.0 °C 13.5 °C 1016.1 hPa NNW 3.5 km/h 8.7 km/h 85% 0.0 mm 0 W/m2
04:17 15.9 °C 13.6 °C 1016.5 hPa NNW 2.6 km/h 8.7 km/h 86% 0.0 mm 0 W/m2
04:22 15.5 °C 13.2 °C 1016.5 hPa NNW 6.1 km/h 9.7 km/h 86% 0.0 mm 0 W/m2
04:27 16.0 °C 13.5 °C 1016.1 hPa NNW 5.0 km/h 9.7 km/h 85% 0.0 mm 0 W/m2
04:32 16.1 °C 13.6 °C 1016.1 hPa NNW 5.0 km/h 11.1 km/h 85% 0.0 mm 0 W/m2
04:37 16.1 °C 13.4 °C 1016.5 hPa Calm   11.1 km/h 84% 0.0 mm 0 W/m2
04:42 16.0 °C 13.3 °C 1016.5 hPa Calm   7.2 km/h 84% 0.0 mm 0 W/m2
04:47 15.8 °C 13.3 °C 1016.5 hPa NW 2.6 km/h 5.0 km/h 85% 0.0 mm 0 W/m2
04:52 15.7 °C 13.4 °C 1016.5 hPa WNW 3.5 km/h 6.1 km/h 86% 0.0 mm 0 W/m2
04:57 15.6 °C 13.3 °C 1016.5 hPa NW 5.0 km/h 6.1 km/h 86% 0.0 mm 0 W/m2
05:02 15.5 °C 13.3 °C 1016.5 hPa NNW 6.1 km/h 8.7 km/h 87% 0.0 mm 0 W/m2
05:07 15.4 °C 13.4 °C 1016.5 hPa NNW 6.1 km/h 9.7 km/h 88% 0.0 mm 0 W/m2
05:12 15.3 °C 13.3 °C 1016.5 hPa NNW 5.0 km/h 9.7 km/h 88% 0.0 mm 0 W/m2
05:17 15.3 °C 13.5 °C 1016.5 hPa NNW 5.0 km/h 7.2 km/h 89% 0.0 mm 0 W/m2
05:22 15.5 °C 13.7 °C 1016.5 hPa NNW 5.0 km/h 9.7 km/h 89% 0.0 mm 0 W/m2
05:27 15.5 °C 13.7 °C 1016.1 hPa North 5.0 km/h 9.7 km/h 89% 0.0 mm 0 W/m2
05:32 15.5 °C 13.6 °C 1016.1 hPa North 8.7 km/h 12.2 km/h 88% 0.0 mm 0 W/m2
05:37 15.6 °C 13.6 °C 1016.1 hPa NNW 8.7 km/h 12.2 km/h 88% 0.0 mm 0 W/m2
05:42 15.7 °C 13.6 °C 1016.1 hPa NNW 6.1 km/h 12.2 km/h 87% 0.0 mm 0 W/m2
05:47 15.6 °C 13.4 °C 1016.1 hPa NNW 5.0 km/h 12.2 km/h 87% 0.0 mm 0 W/m2
05:52 15.6 °C 13.4 °C 1016.1 hPa NNW 5.0 km/h 11.1 km/h 87% 0.0 mm 0 W/m2
05:57 15.5 °C 13.3 °C 1016.5 hPa NNW 3.5 km/h 9.7 km/h 87% 0.0 mm 0 W/m2
06:02 15.4 °C 13.3 °C 1016.5 hPa NNW 5.0 km/h 8.7 km/h 87% 0.0 mm 0 W/m2
06:07 15.4 °C 13.4 °C 1016.8 hPa NNW 5.0 km/h 11.1 km/h 88% 0.0 mm 0 W/m2
06:27 14.9 °C 13.3 °C 1016.8 hPa NNW 2.6 km/h 8.7 km/h 90% 0.0 mm 1 W/m2
06:32 14.8 °C 13.2 °C 1016.8 hPa NNW 2.6 km/h 6.1 km/h 90% 0.0 mm 4 W/m2
06:37 14.8 °C 13.3 °C 1016.8 hPa NNW 2.6 km/h 6.1 km/h 91% 0.0 mm 7 W/m2
06:42 14.8 °C 13.3 °C 1016.8 hPa NNW 3.5 km/h 6.1 km/h 91% 0.0 mm 12 W/m2
06:47 14.9 °C 13.4 °C 1016.8 hPa NNW 3.5 km/h 6.1 km/h 91% 0.0 mm 15 W/m2
06:52 14.9 °C 13.4 °C 1016.8 hPa North 5.0 km/h 7.2 km/h 91% 0.0 mm 19 W/m2
06:57 15.0 °C 13.4 °C 1016.8 hPa North 5.0 km/h 9.7 km/h 90% 0.0 mm 24 W/m2
07:02 15.0 °C 13.4 °C 1016.8 hPa NNW 5.0 km/h 9.7 km/h 90% 0.0 mm 33 W/m2
07:21 15.3 °C 13.5 °C 1016.8 hPa NNW 3.5 km/h 9.7 km/h 89% 0.0 mm 55 W/m2
07:26 15.3 °C 13.5 °C 1016.5 hPa NNW 3.5 km/h 9.7 km/h 89% 0.0 mm 61 W/m2
07:31 15.5 °C 13.7 °C 1016.5 hPa NNW 3.5 km/h 9.7 km/h 89% 0.0 mm 64 W/m2
07:36 15.6 °C 13.8 °C 1016.5 hPa NW 3.5 km/h 6.1 km/h 89% 0.0 mm 68 W/m2
07:41 15.8 °C 13.8 °C 1016.5 hPa NW 5.0 km/h 8.7 km/h 88% 0.0 mm 72 W/m2
07:46 15.8 °C 13.8 °C 1016.5 hPa NW 3.5 km/h 8.7 km/h 88% 0.0 mm 76 W/m2
07:51 15.9 °C 13.7 °C 1016.5 hPa NW 5.0 km/h 8.7 km/h 87% 0.0 mm 80 W/m2
07:56 16.0 °C 13.7 °C 1016.5 hPa NNW 5.0 km/h 8.7 km/h 86% 0.0 mm 84 W/m2
08:01 16.1 °C 13.8 °C 1016.5 hPa NW 5.0 km/h 9.7 km/h 86% 0.0 mm 92 W/m2
08:06 16.3 °C 13.9 °C 1016.5 hPa NNW 5.0 km/h 9.7 km/h 86% 0.0 mm 96 W/m2
08:11 16.5 °C 14.0 °C 1016.1 hPa North 3.5 km/h 8.7 km/h 85% 0.0 mm 91 W/m2
08:16 16.7 °C 14.0 °C 1016.1 hPa North 5.0 km/h 11.1 km/h 84% 0.0 mm 92 W/m2
08:21 16.8 °C 14.1 °C 1016.1 hPa NNW 9.7 km/h 12.2 km/h 84% 0.0 mm 102 W/m2
08:26 16.9 °C 14.0 °C 1016.1 hPa NNW 6.1 km/h 12.2 km/h 83% 0.0 mm 160 W/m2
08:31 17.2 °C 14.1 °C 1016.1 hPa NW 8.7 km/h 12.2 km/h 82% 0.0 mm 154 W/m2
08:36 17.7 °C 14.4 °C 1015.8 hPa NNW 9.7 km/h 11.1 km/h 81% 0.0 mm 140 W/m2
08:41 17.7 °C 14.2 °C 1015.8 hPa NNW 8.7 km/h 14.8 km/h 80% 0.0 mm 154 W/m2
08:46 18.2 °C 14.7 °C 1015.5 hPa NNW 7.2 km/h 14.8 km/h 80% 0.0 mm 200 W/m2
08:51 18.8 °C 14.7 °C 1015.8 hPa NNW 6.1 km/h 15.8 km/h 77% 0.0 mm 156 W/m2
09:09 19.9 °C 14.9 °C 1015.8 hPa NNW 6.1 km/h 13.4 km/h 73% 0.0 mm 173 W/m2
09:14 19.7 °C 14.9 °C 1016.1 hPa NNW 6.1 km/h 14.8 km/h 74% 0.0 mm 147 W/m2
09:19 19.5 °C 14.8 °C 1016.1 hPa NNW 5.0 km/h 14.8 km/h 74% 0.0 mm 185 W/m2
09:24 19.7 °C 14.9 °C 1016.1 hPa NW 7.2 km/h 13.4 km/h 74% 0.0 mm 360 W/m2
09:29 20.1 °C 15.1 °C 1016.1 hPa NW 2.6 km/h 11.1 km/h 73% 0.0 mm 239 W/m2
09:34 20.7 °C 15.7 °C 1016.1 hPa NNW 2.6 km/h 9.7 km/h 73% 0.0 mm 425 W/m2
09:39 21.7 °C 15.6 °C 1016.1 hPa NNW 5.0 km/h 7.2 km/h 68% 0.0 mm 461 W/m2
09:44 22.6 °C 15.4 °C 1016.1 hPa North 5.0 km/h 8.7 km/h 64% 0.0 mm 476 W/m2
09:49 23.2 °C 15.6 °C 1016.1 hPa North 5.0 km/h 8.7 km/h 62% 0.0 mm 497 W/m2
09:55 23.7 °C 16.0 °C 1016.1 hPa North 3.5 km/h 8.7 km/h 62% 0.0 mm 531 W/m2
10:00 24.8 °C 16.0 °C 1016.1 hPa North 6.1 km/h 8.7 km/h 58% 0.0 mm 557 W/m2
10:05 25.1 °C 15.4 °C 1015.8 hPa North 5.0 km/h 9.7 km/h 55% 0.0 mm 568 W/m2
10:10 25.7 °C 16.3 °C 1015.8 hPa North 6.1 km/h 9.7 km/h 56% 0.0 mm 597 W/m2
10:15 26.4 °C 16.1 °C 1015.8 hPa NNE 3.5 km/h 7.2 km/h 53% 0.0 mm 622 W/m2
10:20 27.2 °C 15.6 °C 1015.8 hPa NNE 3.5 km/h 8.7 km/h 49% 0.0 mm 646 W/m2
10:25 27.1 °C 15.2 °C 1015.8 hPa Calm   9.7 km/h 48% 0.0 mm 669 W/m2
10:30 27.9 °C 15.6 °C 1015.8 hPa North 6.1 km/h 9.7 km/h 47% 0.0 mm 701 W/m2
10:35 28.1 °C 15.8 °C 1015.5 hPa NNE 7.2 km/h 9.7 km/h 47% 0.0 mm 735 W/m2
10:40 28.5 °C 15.8 °C 1015.5 hPa North 6.1 km/h 9.7 km/h 46% 0.0 mm 800 W/m2
10:45 28.8 °C 15.7 °C 1015.5 hPa North 6.1 km/h 11.1 km/h 45% 0.0 mm 888 W/m2
10:50 28.5 °C 15.4 °C 1015.5 hPa NNW 1.1 km/h 12.2 km/h 45% 0.0 mm 471 W/m2
10:55 28.8 °C 15.7 °C 1015.5 hPa NNW 5.0 km/h 12.2 km/h 45% 0.0 mm 735 W/m2
11:00 29.7 °C 17.2 °C 1015.5 hPa North 5.0 km/h 11.1 km/h 47% 0.0 mm 825 W/m2
11:05 29.4 °C 17.9 °C 1015.5 hPa South 6.1 km/h 12.2 km/h 50% 0.0 mm 866 W/m2
11:10 28.8 °C 18.0 °C 1015.1 hPa South 7.2 km/h 12.2 km/h 52% 0.0 mm 855 W/m2
11:15 28.2 °C 16.8 °C 1015.5 hPa SSE 6.1 km/h 13.4 km/h 50% 0.0 mm 816 W/m2
11:20 27.8 °C 16.8 °C 1015.1 hPa SE 9.7 km/h 13.4 km/h 51% 0.0 mm 896 W/m2
11:25 27.1 °C 16.4 °C 1015.1 hPa SSE 11.1 km/h 14.8 km/h 52% 0.0 mm 894 W/m2
11:30 26.6 °C 16.8 °C 1015.1 hPa South 5.0 km/h 15.8 km/h 55% 0.0 mm 908 W/m2
11:35 27.0 °C 16.6 °C 1014.8 hPa South 9.7 km/h 15.8 km/h 53% 0.0 mm 925 W/m2
11:40 26.6 °C 16.8 °C 1014.8 hPa South 9.7 km/h 17.2 km/h 55% 0.0 mm 934 W/m2
11:45 25.9 °C 17.3 °C 1014.8 hPa South 11.1 km/h 17.2 km/h 59% 0.0 mm 936 W/m2
11:50 25.6 °C 18.1 °C 1014.4 hPa South 11.1 km/h 19.5 km/h 63% 0.0 mm 935 W/m2
11:55 25.6 °C 17.3 °C 1014.8 hPa South 11.1 km/h 19.5 km/h 60% 0.0 mm 952 W/m2
12:00 26.0 °C 16.8 °C 1014.4 hPa South 11.1 km/h 15.8 km/h 57% 0.0 mm 961 W/m2
12:05 26.3 °C 16.6 °C 1014.4 hPa South 7.2 km/h 15.8 km/h 55% 0.0 mm 972 W/m2
12:10 26.5 °C 16.4 °C 1014.4 hPa South 7.2 km/h 15.8 km/h 54% 0.0 mm 976 W/m2
12:15 26.7 °C 16.9 °C 1014.1 hPa SSE 8.7 km/h 15.8 km/h 55% 0.0 mm 979 W/m2
12:20 27.0 °C 16.3 °C 1014.1 hPa SSE 7.2 km/h 15.8 km/h 52% 0.0 mm 988 W/m2
12:25 27.3 °C 16.3 °C 1014.1 hPa South 8.7 km/h 14.8 km/h 51% 0.0 mm 995 W/m2
12:30 26.9 °C 16.2 °C 1014.1 hPa SSE 11.1 km/h 18.3 km/h 52% 0.0 mm 992 W/m2
12:35 27.1 °C 15.8 °C 1013.8 hPa SSE 8.7 km/h 18.3 km/h 50% 0.0 mm 992 W/m2
12:40 27.4 °C 15.8 °C 1013.8 hPa South 9.7 km/h 15.8 km/h 49% 0.0 mm 997 W/m2
12:45 27.9 °C 16.2 °C 1013.4 hPa South 9.7 km/h 15.8 km/h 49% 0.0 mm 1002 W/m2
12:50 27.7 °C 16.3 °C 1013.8 hPa SSE 9.7 km/h 15.8 km/h 50% 0.0 mm 1003 W/m2
12:55 27.4 °C 16.1 °C 1013.8 hPa South 8.7 km/h 17.2 km/h 50% 0.0 mm 997 W/m2
13:00 27.2 °C 16.8 °C 1013.4 hPa SSE 6.1 km/h 17.2 km/h 53% 0.0 mm 978 W/m2
13:05 27.5 °C 16.2 °C 1013.4 hPa SSE 9.7 km/h 17.2 km/h 50% 0.0 mm 1004 W/m2
13:10 27.7 °C 16.1 °C 1013.4 hPa South 6.1 km/h 14.8 km/h 49% 0.0 mm 1002 W/m2
13:15 28.0 °C 16.3 °C 1013.4 hPa SSE 8.7 km/h 18.3 km/h 49% 0.0 mm 999 W/m2
13:20 28.2 °C 15.8 °C 1013.4 hPa SSE 8.7 km/h 18.3 km/h 47% 0.0 mm 996 W/m2
13:25 28.2 °C 16.2 °C 1013.4 hPa SSE 8.7 km/h 13.4 km/h 48% 0.0 mm 992 W/m2
13:30 28.0 °C 16.0 °C 1013.4 hPa SSE 5.0 km/h 13.4 km/h 48% 0.0 mm 985 W/m2
13:35 28.6 °C 16.2 °C 1013.1 hPa SSE 6.1 km/h 14.8 km/h 47% 0.0 mm 988 W/m2
13:40 28.6 °C 15.6 °C 1013.1 hPa SSE 7.2 km/h 17.2 km/h 45% 0.0 mm 985 W/m2
13:45 29.0 °C 15.6 °C 1012.8 hPa South 5.0 km/h 17.2 km/h 44% 0.0 mm 983 W/m2
13:50 29.4 °C 15.9 °C 1012.8 hPa South 7.2 km/h 12.2 km/h 44% 0.0 mm 981 W/m2
13:55 29.5 °C 16.0 °C 1012.8 hPa South 7.2 km/h 13.4 km/h 44% 0.0 mm 978 W/m2
14:00 29.4 °C 15.2 °C 1012.4 hPa SSE 12.2 km/h 17.2 km/h 42% 0.0 mm 984 W/m2
14:05 29.4 °C 15.9 °C 1012.4 hPa SSE 9.7 km/h 17.2 km/h 44% 0.0 mm 997 W/m2
14:10 29.3 °C 15.4 °C 1012.4 hPa SSE 7.2 km/h 18.3 km/h 43% 0.0 mm 993 W/m2
14:15 29.7 °C 15.1 °C 1012.4 hPa SSE 6.1 km/h 18.3 km/h 41% 0.0 mm 853 W/m2
14:20 30.0 °C 15.3 °C 1012.4 hPa South 9.7 km/h 17.2 km/h 41% 0.0 mm 803 W/m2
14:25 29.9 °C 15.6 °C 1012.1 hPa SSE 3.5 km/h 17.2 km/h 42% 0.0 mm 948 W/m2
14:30 30.4 °C 14.9 °C 1012.1 hPa SSE 3.5 km/h 17.2 km/h 39% 0.0 mm 1083 W/m2
14:35 31.5 °C 15.1 °C 1012.1 hPa SSE 6.1 km/h 14.8 km/h 37% 0.0 mm 926 W/m2
14:40 31.3 °C 15.7 °C 1012.1 hPa South 13.4 km/h 18.3 km/h 39% 0.0 mm 603 W/m2
14:45 30.2 °C 16.3 °C 1011.7 hPa SSE 8.7 km/h 18.3 km/h 43% 0.0 mm 527 W/m2
14:50 29.8 °C 16.3 °C 1011.7 hPa SSE 5.0 km/h 18.3 km/h 44% 0.0 mm 324 W/m2
14:55 29.9 °C 15.2 °C 1012.1 hPa South 6.1 km/h 13.4 km/h 41% 0.0 mm 298 W/m2
15:00 29.5 °C 16.3 °C 1011.7 hPa SW 3.5 km/h 13.4 km/h 45% 0.0 mm 277 W/m2
15:05 29.2 °C 16.4 °C 1011.7 hPa SW 7.2 km/h 13.4 km/h 46% 0.0 mm 303 W/m2
15:10 28.6 °C 16.9 °C 1011.7 hPa SW 9.7 km/h 12.2 km/h 49% 0.0 mm 414 W/m2
15:15 28.6 °C 16.9 °C 1012.1 hPa SW 6.1 km/h 12.2 km/h 49% 0.0 mm 472 W/m2
15:20 29.3 °C 16.5 °C 1011.7 hPa SSW 7.2 km/h 11.1 km/h 46% 0.0 mm 470 W/m2
15:25 29.7 °C 16.9 °C 1011.7 hPa South 6.1 km/h 11.1 km/h 46% 0.0 mm 299 W/m2
15:30 29.1 °C 16.7 °C 1011.4 hPa South 7.2 km/h 9.7 km/h 47% 0.0 mm 306 W/m2
15:35 28.7 °C 17.3 °C 1011.4 hPa South 2.6 km/h 9.7 km/h 50% 0.0 mm 420 W/m2
15:40 29.2 °C 17.4 °C 1011.4 hPa South 5.0 km/h 9.7 km/h 49% 0.0 mm 401 W/m2
15:45 29.6 °C 17.4 °C 1011.4 hPa Calm   9.7 km/h 48% 0.0 mm 392 W/m2
15:50 31.0 °C 11.9 °C 1011.4 hPa NW 17.2 km/h 23.3 km/h 31% 0.0 mm 347 W/m2
15:55 31.8 °C 12.1 °C 1011.1 hPa NNW 11.1 km/h 23.3 km/h 30% 0.0 mm 319 W/m2
16:00 32.2 °C 10.9 °C 1011.4 hPa NNW 8.7 km/h 23.3 km/h 27% 0.0 mm 373 W/m2
16:05 32.6 °C 10.6 °C 1011.1 hPa NNW 11.1 km/h 23.3 km/h 26% 0.0 mm 500 W/m2
16:10 32.9 °C 11.4 °C 1011.1 hPa North 8.7 km/h 23.3 km/h 27% 0.0 mm 429 W/m2
16:15 33.1 °C 12.7 °C 1010.7 hPa North 9.7 km/h 21.9 km/h 29% 0.0 mm 309 W/m2
16:20 32.9 °C 10.9 °C 1011.1 hPa North 14.8 km/h 21.9 km/h 26% 0.0 mm 351 W/m2
16:25 33.4 °C 13.0 °C 1010.7 hPa North 13.4 km/h 20.9 km/h 29% 0.0 mm 662 W/m2
16:30 34.1 °C 11.9 °C 1010.7 hPa North 6.1 km/h 20.9 km/h 26% 0.0 mm 659 W/m2
16:35 34.7 °C 12.4 °C 1010.7 hPa NNW 7.2 km/h 21.9 km/h 26% 0.0 mm 541 W/m2
16:40 34.5 °C 11.7 °C 1010.7 hPa NNW 13.4 km/h 23.3 km/h 25% 0.0 mm 583 W/m2
16:45 34.3 °C 12.1 °C 1010.7 hPa NNW 12.2 km/h 27.0 km/h 26% 0.0 mm 600 W/m2
16:50 34.3 °C 11.5 °C 1010.7 hPa North 12.2 km/h 27.0 km/h 25% 0.0 mm 485 W/m2
16:55 33.9 °C 12.3 °C 1010.7 hPa North 17.2 km/h 29.4 km/h 27% 0.0 mm 459 W/m2
17:00 33.7 °C 12.2 °C 1010.7 hPa North 17.2 km/h 29.4 km/h 27% 0.0 mm 401 W/m2
17:05 33.7 °C 12.7 °C 1010.4 hPa North 14.8 km/h 25.6 km/h 28% 0.0 mm 320 W/m2
17:10 33.4 °C 12.4 °C 1010.4 hPa North 8.7 km/h 23.3 km/h 28% 0.0 mm 430 W/m2
17:15 33.9 °C 12.9 °C 1010.4 hPa NNE 8.7 km/h 20.9 km/h 28% 0.0 mm 446 W/m2
17:20 34.2 °C 12.6 °C 1010.4 hPa NNE 9.7 km/h 21.9 km/h 27% 0.0 mm 413 W/m2
17:25 34.1 °C 12.5 °C 1010.4 hPa North 14.8 km/h 24.5 km/h 27% 0.0 mm 398 W/m2
17:30 34.0 °C 12.4 °C 1010.4 hPa North 13.4 km/h 25.6 km/h 27% 0.0 mm 439 W/m2
17:35 34.7 °C 13.6 °C 1010.4 hPa NW 7.2 km/h 25.6 km/h 28% 0.0 mm 495 W/m2
17:40 35.0 °C 15.4 °C 1010.4 hPa SW 9.7 km/h 15.8 km/h 31% 0.0 mm 460 W/m2
17:45 33.2 °C 17.0 °C 1010.7 hPa SW 8.7 km/h 20.9 km/h 38% 0.0 mm 418 W/m2
17:50 32.2 °C 17.3 °C 1010.7 hPa SW 11.1 km/h 20.9 km/h 41% 0.0 mm 397 W/m2
17:55 32.2 °C 15.7 °C 1010.7 hPa SW 7.2 km/h 19.5 km/h 37% 0.0 mm 373 W/m2
18:00 32.1 °C 16.0 °C 1010.7 hPa SW 9.7 km/h 15.8 km/h 38% 0.0 mm 355 W/m2
18:05 31.9 °C 15.4 °C 1010.7 hPa SW 12.2 km/h 18.3 km/h 37% 0.0 mm 310 W/m2
18:10 31.3 °C 13.6 °C 1011.1 hPa SW 11.1 km/h 18.3 km/h 34% 0.0 mm 307 W/m2
18:15 32.2 °C 13.4 °C 1010.7 hPa WSW 1.1 km/h 17.2 km/h 32% 0.0 mm 328 W/m2
18:20 34.1 °C 11.3 °C 1010.7 hPa West 9.7 km/h 21.9 km/h 25% 0.0 mm 298 W/m2
18:25 34.3 °C 10.9 °C 1010.7 hPa NW 9.7 km/h 23.3 km/h 24% 0.0 mm 164 W/m2
18:30 34.0 °C 10.6 °C 1010.7 hPa NW 11.1 km/h 24.5 km/h 24% 0.0 mm 175 W/m2
18:35 33.3 °C 10.6 °C 1010.7 hPa WNW 9.7 km/h 24.5 km/h 25% 0.0 mm 195 W/m2
18:40 32.9 °C 9.1 °C 1011.1 hPa NW 13.4 km/h 23.3 km/h 23% 0.0 mm 117 W/m2
18:45 32.5 °C 9.3 °C 1011.1 hPa WNW 9.7 km/h 23.3 km/h 24% 0.0 mm 106 W/m2
18:50 32.3 °C 9.2 °C 1011.1 hPa WNW 8.7 km/h 20.9 km/h 24% 0.0 mm 100 W/m2
18:55 31.9 °C 9.4 °C 1011.1 hPa WNW 6.1 km/h 17.2 km/h 25% 0.0 mm 100 W/m2
19:00 31.7 °C 9.9 °C 1011.1 hPa NW 3.5 km/h 15.8 km/h 26% 0.0 mm 112 W/m2
19:05 31.7 °C 9.9 °C 1011.4 hPa WNW 14.8 km/h 23.3 km/h 26% 0.0 mm 110 W/m2
19:10 31.7 °C 9.9 °C 1011.4 hPa NW 13.4 km/h 23.3 km/h 26% 0.0 mm 106 W/m2
19:15 31.7 °C 9.9 °C 1011.4 hPa NW 13.4 km/h 25.6 km/h 26% 0.0 mm 106 W/m2
19:20 31.5 °C 9.7 °C 1011.7 hPa NW 8.7 km/h 27.0 km/h 26% 0.0 mm 93 W/m2
19:25 31.4 °C 10.2 °C 1011.7 hPa WNW 12.2 km/h 27.0 km/h 27% 0.0 mm 87 W/m2
19:30 31.4 °C 10.7 °C 1011.7 hPa West 5.0 km/h 19.5 km/h 28% 0.0 mm 89 W/m2
19:35 30.5 °C 16.6 °C 1011.7 hPa SW 17.2 km/h 23.3 km/h 43% 0.0 mm 89 W/m2
19:40 28.0 °C 16.3 °C 1012.1 hPa SW 12.2 km/h 27.0 km/h 49% 0.0 mm 58 W/m2
19:45 26.8 °C 16.4 °C 1012.1 hPa SW 14.8 km/h 27.0 km/h 53% 0.0 mm 31 W/m2
19:50 25.9 °C 16.5 °C 1012.1 hPa SW 11.1 km/h 24.5 km/h 56% 0.0 mm 23 W/m2
19:55 25.2 °C 17.2 °C 1012.4 hPa SW 14.8 km/h 24.5 km/h 61% 0.0 mm 22 W/m2
20:00 24.5 °C 17.5 °C 1012.4 hPa SW 9.7 km/h 23.3 km/h 65% 0.0 mm 21 W/m2
20:05 24.2 °C 17.2 °C 1012.4 hPa SW 19.5 km/h 23.3 km/h 65% 0.0 mm 18 W/m2
20:10 24.0 °C 17.1 °C 1012.4 hPa SW 13.4 km/h 23.3 km/h 65% 0.0 mm 9 W/m2
20:15 23.8 °C 17.1 °C 1012.8 hPa SW 15.8 km/h 23.3 km/h 66% 0.0 mm 4 W/m2
20:20 23.6 °C 16.9 °C 1012.8 hPa SW 7.2 km/h 23.3 km/h 66% 0.0 mm 1 W/m2
20:25 23.5 °C 16.8 °C 1012.8 hPa SSW 8.7 km/h 18.3 km/h 66% 0.0 mm 0 W/m2
20:30 23.3 °C 16.8 °C 1013.1 hPa SSW 12.2 km/h 15.8 km/h 67% 0.0 mm 0 W/m2
20:32 23.2 °C 16.8 °C 1012.8 hPa SSW 9.7 km/h 15.8 km/h 67% 0.0 mm 0 W/m2
20:37 23.1 °C 16.7 °C 1013.1 hPa SSW 12.2 km/h 18.3 km/h 67% 0.0 mm 0 W/m2
20:42 23.1 °C 16.7 °C 1013.1 hPa SW 6.1 km/h 18.3 km/h 67% 0.0 mm 0 W/m2
20:59 22.5 °C 17.0 °C 1013.4 hPa SW 8.7 km/h 15.8 km/h 71% 0.0 mm 0 W/m2
21:04 22.4 °C 16.9 °C 1013.4 hPa SW 6.1 km/h 14.8 km/h 71% 0.0 mm 0 W/m2
21:09 22.3 °C 16.8 °C 1013.4 hPa SW 7.2 km/h 13.4 km/h 71% 0.0 mm 0 W/m2
21:14 22.2 °C 16.7 °C 1013.4 hPa SSW 2.6 km/h 11.1 km/h 71% 0.0 mm 0 W/m2
21:19 22.1 °C 16.6 °C 1013.4 hPa South 1.1 km/h 11.1 km/h 71% 0.0 mm 0 W/m2
21:25 21.9 °C 16.8 °C 1013.4 hPa Calm   6.1 km/h 73% 0.0 mm 0 W/m2
21:30 21.8 °C 16.8 °C 1013.4 hPa SE 1.1 km/h 5.0 km/h 73% 0.0 mm 0 W/m2
21:35 21.7 °C 16.9 °C 1013.8 hPa Calm   5.0 km/h 74% 0.0 mm 0 W/m2
21:40 21.6 °C 17.0 °C 1013.8 hPa Calm   3.5 km/h 75% 0.0 mm 0 W/m2
21:45 21.6 °C 17.0 °C 1013.8 hPa Calm   3.5 km/h 75% 0.0 mm 0 W/m2
21:50 21.5 °C 16.9 °C 1013.8 hPa ENE 1.1 km/h 5.0 km/h 75% 0.0 mm 0 W/m2
21:55 21.5 °C 17.1 °C 1013.8 hPa Calm   5.0 km/h 76% 0.0 mm 0 W/m2
22:00 21.5 °C 17.1 °C 1013.8 hPa NE 2.6 km/h 5.0 km/h 76% 0.0 mm 0 W/m2
22:05 21.5 °C 16.9 °C 1013.8 hPa NW 1.1 km/h 5.0 km/h 75% 0.0 mm 0 W/m2
22:10 21.3 °C 16.7 °C 1013.8 hPa NNW 1.1 km/h 5.0 km/h 75% 0.0 mm 0 W/m2
22:15 21.2 °C 16.6 °C 1014.1 hPa Calm   3.5 km/h 75% 0.0 mm 0 W/m2
22:20 21.0 °C 16.4 °C 1013.8 hPa Calm   3.5 km/h 75% 0.0 mm 0 W/m2
22:25 21.0 °C 16.6 °C 1013.8 hPa Calm   3.5 km/h 76% 0.0 mm 0 W/m2
22:30 21.0 °C 16.6 °C 1013.8 hPa Calm   3.5 km/h 76% 0.0 mm 0 W/m2
22:35 21.0 °C 16.4 °C 1013.8 hPa North 2.6 km/h 5.0 km/h 75% 0.0 mm 0 W/m2
22:40 21.2 °C 16.4 °C 1013.8 hPa North 3.5 km/h 5.0 km/h 74% 0.0 mm 0 W/m2
22:45 21.2 °C 16.4 °C 1013.8 hPa Calm   5.0 km/h 74% 0.0 mm 0 W/m2
22:50 21.2 °C 16.2 °C 1013.8 hPa Calm   6.1 km/h 73% 0.0 mm 0 W/m2
22:55 21.2 °C 15.9 °C 1013.8 hPa NW 5.0 km/h 7.2 km/h 72% 0.0 mm 0 W/m2
23:00 21.5 °C 15.3 °C 1013.8 hPa NW 6.1 km/h 8.7 km/h 68% 0.0 mm 0 W/m2
23:03 21.9 °C 15.3 °C 1013.8 hPa NW 5.0 km/h 8.7 km/h 66% 0.0 mm 0 W/m2
23:08 22.5 °C 14.9 °C 1013.4 hPa NNW 3.5 km/h 8.7 km/h 62% 0.0 mm 0 W/m2
23:13 22.9 °C 15.0 °C 1013.4 hPa North 8.7 km/h 13.4 km/h 61% 0.0 mm 0 W/m2
23:18 23.4 °C 14.4 °C 1013.4 hPa NNW 6.1 km/h 14.8 km/h 57% 0.0 mm 0 W/m2
23:23 23.7 °C 14.4 °C 1013.4 hPa NW 8.7 km/h 15.8 km/h 56% 0.0 mm 0 W/m2
23:28 23.9 °C 14.3 °C 1013.1 hPa NNW 7.2 km/h 15.8 km/h 55% 0.0 mm 0 W/m2
23:33 23.8 °C 14.2 °C 1013.1 hPa NNW 5.0 km/h 14.8 km/h 55% 0.0 mm 0 W/m2
23:38 23.6 °C 14.1 °C 1013.1 hPa NNW 7.2 km/h 13.4 km/h 55% 0.0 mm 0 W/m2
23:43 23.4 °C 13.9 °C 1013.1 hPa NNW 6.1 km/h 13.4 km/h 55% 0.0 mm 0 W/m2
23:48 23.2 °C 13.9 °C 1013.1 hPa NNW 8.7 km/h 12.2 km/h 56% 0.0 mm 0 W/m2
23:53 23.2 °C 13.7 °C 1013.1 hPa NW 7.2 km/h 12.2 km/h 55% 0.0 mm 0 W/m2
23:58 23.3 °C 13.8 °C 1012.8 hPa NNW 6.1 km/h 12.2 km/h 55% 0.0 mm 0 W/m2
Northern Hawkes Bay. New Zealand Historic Data
Compliments of Weather Underground - 2.25 mb